First Clarity — A8RM8 — position and weather

sailwx.info

Track history (hours):
 
Tides and Currents Weather Stations Pressure Air Temp Water Temp Dewpoint Dewpoint Depression Visibility Wind Speed Wind Dir Waves Ship Positions

First Clarity

Last reported at 2014-Sep-19 12:33 UTC. Time now 2014-Sep-21 02:04 UTC.
Position N 35°10' E 139°45'.

Length 104 m; draft 5.6 m.

Type: Cargo ship. MMSI: 636014129.

Date/timePositionNaut miles runAvg speedWind from/ knotsBaromVisibWave heightAir tempDewpointWater temp
2014-Sep-19 12:33N 35°10' E 139°45'1010.2
2014-Sep-19 11:33N 35°20' E 139°42'5 5.2
2014-Sep-19 10:33N 35°24' E 139°38'0 0.0
2014-Sep-19 09:32N 35°24' E 139°38'0 0.0
2014-Sep-19 08:32N 35°24' E 139°38'0 0.0
2014-Sep-19 07:32N 35°24' E 139°38'0 0.0
2014-Sep-19 06:32N 35°24' E 139°38'0 0.0
2014-Sep-19 05:32N 35°24' E 139°38'0 0.0
2014-Sep-19 04:32N 35°24' E 139°38'0 0.0
2014-Sep-19 03:32N 35°24' E 139°38'0 0.0
2014-Sep-19 02:32N 35°24' E 139°38'0 0.0
2014-Sep-19 01:32N 35°24' E 139°38'0 0.0
2014-Sep-19 00:32N 35°24' E 139°38'0 0.0
2014-Sep-18 23:32N 35°24' E 139°38'0 0.1
2014-Sep-18 22:33N 35°24' E 139°38'2 1.7
2014-Sep-18 21:33N 35°23' E 139°40'0 0.0
2014-Sep-18 20:31N 35°23' E 139°40'0 0.1
2014-Sep-18 19:31N 35°23' E 139°40'0 0.0
2014-Sep-18 18:31N 35°23' E 139°40'0 0.0
2014-Sep-18 17:31N 35°23' E 139°40'0 0.1
2014-Sep-18 16:31N 35°23' E 139°40'0 0.1
2014-Sep-18 15:31N 35°23' E 139°40'0 0.1
2014-Sep-18 14:31N 35°23' E 139°40'0 0.0
2014-Sep-18 13:31N 35°23' E 139°40'0 0.0
2014-Sep-18 12:31N 35°23' E 139°40'0 0.0
2014-Sep-18 11:31N 35°23' E 139°40'0 0.0
2014-Sep-18 10:31N 35°23' E 139°40'3 2.7
2014-Sep-18 09:33N 35°22' E 139°43'9 9.0
2014-Sep-18 08:33N 35°14' E 139°47'1110.5
2014-Sep-18 07:32N 35°03' E 139°44'68 9.4
2014-Sep-18 00:20N 34°29' E 138°33'29711.5
2014-Sep-16 22:23N 32°40' E 133°01'  
Track history (hours):
 
Tides and Currents Weather Stations Pressure Air Temp Water Temp Dewpoint Dewpoint Depression Visibility Wind Speed Wind Dir Waves Ship Positions

First Clarity

Last reported at 2014-Sep-19 12:33 UTC. Time now 2014-Sep-21 02:04 UTC.
Position N 35°10' E 139°45'.

Length 104 m; draft 5.6 m.

Type: Cargo ship. MMSI: 636014129.

Date/timePositionNaut miles runAvg speedWind from/ knotsBaromVisibWave heightAir tempDewpointWater temp
2014-Sep-19 12:33N 35°10' E 139°45'1010.2
2014-Sep-19 11:33N 35°20' E 139°42'5 5.2
2014-Sep-19 10:33N 35°24' E 139°38'0 0.0
2014-Sep-19 09:32N 35°24' E 139°38'0 0.0
2014-Sep-19 08:32N 35°24' E 139°38'0 0.0
2014-Sep-19 07:32N 35°24' E 139°38'0 0.0
2014-Sep-19 06:32N 35°24' E 139°38'0 0.0
2014-Sep-19 05:32N 35°24' E 139°38'0 0.0
2014-Sep-19 04:32N 35°24' E 139°38'0 0.0
2014-Sep-19 03:32N 35°24' E 139°38'0 0.0
2014-Sep-19 02:32N 35°24' E 139°38'0 0.0
2014-Sep-19 01:32N 35°24' E 139°38'0 0.0
2014-Sep-19 00:32N 35°24' E 139°38'0 0.0
2014-Sep-18 23:32N 35°24' E 139°38'0 0.1
2014-Sep-18 22:33N 35°24' E 139°38'2 1.7
2014-Sep-18 21:33N 35°23' E 139°40'0 0.0
2014-Sep-18 20:31N 35°23' E 139°40'0 0.1
2014-Sep-18 19:31N 35°23' E 139°40'0 0.0
2014-Sep-18 18:31N 35°23' E 139°40'0 0.0
2014-Sep-18 17:31N 35°23' E 139°40'0 0.1
2014-Sep-18 16:31N 35°23' E 139°40'0 0.1
2014-Sep-18 15:31N 35°23' E 139°40'0 0.1
2014-Sep-18 14:31N 35°23' E 139°40'0 0.0
2014-Sep-18 13:31N 35°23' E 139°40'0 0.0
2014-Sep-18 12:31N 35°23' E 139°40'0 0.0
2014-Sep-18 11:31N 35°23' E 139°40'0 0.0
2014-Sep-18 10:31N 35°23' E 139°40'3 2.7
2014-Sep-18 09:33N 35°22' E 139°43'9 9.0
2014-Sep-18 08:33N 35°14' E 139°47'1110.5
2014-Sep-18 07:32N 35°03' E 139°44'68 9.4
2014-Sep-18 00:20N 34°29' E 138°33'29711.5
2014-Sep-16 22:23N 32°40' E 133°01'  

Dump ship's entire track history